Main page
Satellite images 15-day forecastsClimateMarine weather Cyclones Lightning AirportsFAQ Newsletter About
Weather : Europe Africa North America South America Asia Australia-Oceania Others
Languages Contact

Tunis, Tunisia

Carthage

latitude: 36-50N, longitude: 010-14E, elevation: 3 m


METAR: DTTA 162130Z 01007KT 9999 FEW026 15/06 Q1019 NOSIG
short-TAF: out of date (1262 hours)
long-TAF: DTTA 161700Z 1618/1718 02010KT 9999 FEW026 BECMG 1708/1710 27014G25KT BECMG 1714/1716 32008KT CAVOK

Time: 22:51 (21:51 UTC)

Current weather observation

The report was made 21 minutes ago, at 21:30 UTC  
Wind 07 kt from north
Temperature 15°C
Humidity 55%
Pressure 1019 hPa
Visibility 10 km or more
Few clouds at a height of 2600 ft

Change units

Forecast

The report was made 5 hours and 36 minutes ago, at 16:15 UTC  
Forecast valid from 16 at 18 UTC to 17 at 18 UTC
Wind 10 kt from north/northeast
Visibility 10 km or more
Few clouds at a height of 2600 ft
Becoming
from 17 at 08 UTC to 17 at 10 UTC
Wind 14 kt from west with gusts up to 25 kt
Becoming
from 17 at 14 UTC to 17 at 16 UTC
Wind 08 kt from northwest
Visibility 10 km or more
no clouds below 1500 m and no cumulonimbus
The information on this site is subject to a disclaimer
Weather : Europe Africa North America South America Asia Australia-Oceania Others
Satellite images 15-day forecastsClimateMarine weather Cyclones Lightning AirportsFAQ Languages Contact Newsletter About